createdAt,value
2018-11-23T00:00:23.160Z,2.74
2018-11-23T00:02:51.554Z,2.72
2018-11-23T00:05:19.683Z,2.66
2018-11-23T00:07:48.024Z,2.69
2018-11-23T00:10:21.074Z,2.78
2018-11-23T00:12:49.214Z,2.83
2018-11-23T00:15:18.372Z,2.85
2018-11-23T00:17:46.356Z,2.89
2018-11-23T00:20:15.618Z,2.82
2018-11-23T00:22:43.802Z,2.83
2018-11-23T00:25:13.842Z,2.90
2018-11-23T00:27:41.983Z,2.83
2018-11-23T00:30:13.367Z,2.90
2018-11-23T00:32:41.535Z,2.80
2018-11-23T00:35:11.291Z,2.81
2018-11-23T00:37:39.298Z,2.83
2018-11-23T00:40:09.328Z,2.89
2018-11-23T00:42:37.309Z,3.06
2018-11-23T00:45:06.985Z,3.06
2018-11-23T00:47:34.978Z,3.02
2018-11-23T00:50:02.983Z,2.97
2018-11-23T00:52:30.987Z,2.95
2018-11-23T00:54:59.995Z,2.99
2018-11-23T00:57:28.009Z,2.96
2018-11-23T00:59:56.002Z,3.18
2018-11-23T01:02:23.986Z,3.06
2018-11-23T01:04:51.978Z,2.97
2018-11-23T01:07:19.979Z,2.88
2018-11-23T01:09:48.003Z,2.82
2018-11-23T01:12:16.022Z,2.99
2018-11-23T01:14:44.025Z,3.02
2018-11-23T01:17:12.025Z,2.97
2018-11-23T01:19:40.012Z,2.79
2018-11-23T01:22:07.997Z,2.85
2018-11-23T01:24:36.025Z,2.92
2018-11-23T01:27:04.054Z,3.02
2018-11-23T01:29:32.053Z,3.01
2018-11-23T01:32:00.083Z,3.19
2018-11-23T01:34:28.103Z,3.21
2018-11-23T01:36:56.171Z,3.07
2018-11-23T01:39:24.161Z,3.00
2018-11-23T01:41:52.162Z,2.93
2018-11-23T01:44:20.178Z,2.76
2018-11-23T01:46:48.190Z,2.83
2018-11-23T01:49:16.292Z,2.82
2018-11-23T01:51:44.331Z,2.80
2018-11-23T01:54:12.346Z,2.74
2018-11-23T01:56:40.378Z,2.70
2018-11-23T01:59:08.553Z,2.79
2018-11-23T02:01:36.569Z,2.83
2018-11-23T02:04:04.685Z,2.79
2018-11-23T02:06:32.758Z,2.73
2018-11-23T02:09:00.768Z,2.80
2018-11-23T02:11:28.774Z,2.87
2018-11-23T02:13:56.781Z,2.97
2018-11-23T02:16:24.814Z,2.90
2018-11-23T02:18:52.802Z,2.93
2018-11-23T02:21:20.843Z,2.95
2018-11-23T02:23:48.855Z,2.86
2018-11-23T02:26:16.885Z,2.80
2018-11-23T02:28:44.916Z,2.98
2018-11-23T02:31:12.982Z,2.75
2018-11-23T02:33:41.561Z,2.79
2018-11-23T02:36:10.651Z,2.84
2018-11-23T02:38:38.930Z,2.95
2018-11-23T02:41:07.035Z,3.03
2018-11-23T02:43:35.025Z,2.94
2018-11-23T02:46:03.057Z,2.81
2018-11-23T02:48:31.061Z,2.82
2018-11-23T02:50:59.085Z,2.66
2018-11-23T02:53:27.125Z,2.68
2018-11-23T02:55:55.133Z,2.72
2018-11-23T02:58:23.142Z,2.87
2018-11-23T03:00:51.137Z,2.99
2018-11-23T03:03:19.184Z,2.87
2018-11-23T03:05:47.298Z,2.88
2018-11-23T03:08:15.338Z,3.03
2018-11-23T03:10:43.361Z,3.12
2018-11-23T03:13:11.373Z,3.01
2018-11-23T03:15:39.394Z,2.98
2018-11-23T03:18:07.602Z,3.02
2018-11-23T03:20:35.600Z,3.04
2018-11-23T03:23:03.615Z,2.97
2018-11-23T03:25:31.634Z,2.89
2018-11-23T03:27:59.661Z,2.84
2018-11-23T03:30:27.796Z,2.78
2018-11-23T03:32:55.789Z,2.85
2018-11-23T03:35:24.046Z,2.88
2018-11-23T03:37:52.054Z,2.81
2018-11-23T03:40:20.102Z,2.96
2018-11-23T03:42:48.099Z,2.79
2018-11-23T03:45:16.523Z,2.85
2018-11-23T03:47:44.809Z,3.03
2018-11-23T03:50:13.690Z,2.89
2018-11-23T03:52:42.182Z,2.84
2018-11-23T03:55:10.185Z,2.88
2018-11-23T03:57:38.354Z,2.93
2018-11-23T04:00:17.485Z,3.03
2018-11-23T04:02:41.507Z,2.92
2018-11-23T04:05:09.511Z,2.74
2018-11-23T04:07:37.525Z,2.86
2018-11-23T04:10:07.178Z,2.92
2018-11-23T04:12:35.207Z,2.88
2018-11-23T04:15:03.223Z,3.02
2018-11-23T04:17:31.232Z,2.99
2018-11-23T04:19:59.277Z,2.96
2018-11-23T04:22:27.317Z,3.19
2018-11-23T04:24:55.399Z,3.16
2018-11-23T04:27:23.570Z,3.04
2018-11-23T04:29:51.753Z,2.95
2018-11-23T04:32:19.812Z,3.12
2018-11-23T04:34:47.934Z,2.99
2018-11-23T04:37:15.946Z,2.93
2018-11-23T04:39:43.962Z,3.07
2018-11-23T04:42:12.006Z,2.95
2018-11-23T04:44:40.018Z,2.86
2018-11-23T04:47:08.014Z,2.88
2018-11-23T04:49:36.048Z,3.07
2018-11-23T04:52:04.039Z,3.03
2018-11-23T04:54:32.046Z,2.90
2018-11-23T04:57:01.090Z,3.01
2018-11-23T04:59:29.106Z,3.06
2018-11-23T05:01:57.106Z,3.14
2018-11-23T05:04:25.127Z,3.11
2018-11-23T05:06:53.193Z,3.08
2018-11-23T05:09:21.186Z,3.04
2018-11-23T05:11:50.263Z,3.09
2018-11-23T05:14:17.197Z,2.86
2018-11-23T05:16:45.218Z,2.82
2018-11-23T05:19:13.324Z,2.85
2018-11-23T05:21:41.348Z,2.92
2018-11-23T05:24:09.357Z,2.88
2018-11-23T05:26:37.356Z,2.93
2018-11-23T05:29:05.669Z,2.93
2018-11-23T05:31:33.671Z,2.78
2018-11-23T05:34:01.673Z,2.65
2018-11-23T05:36:29.680Z,2.68
2018-11-23T05:38:57.700Z,2.88
2018-11-23T05:41:25.767Z,2.94
2018-11-23T05:43:53.772Z,3.07
2018-11-23T05:46:21.793Z,3.03
2018-11-23T05:48:49.820Z,3.31
2018-11-23T05:51:17.818Z,3.10
2018-11-23T05:53:45.874Z,2.99
2018-11-23T05:56:13.918Z,2.82
2018-11-23T05:58:41.947Z,2.99
2018-11-23T06:01:09.961Z,3.06
2018-11-23T06:03:37.977Z,3.14
2018-11-23T06:06:06.111Z,3.06
2018-11-23T06:08:34.110Z,3.02
2018-11-23T06:11:02.256Z,2.96
2018-11-23T06:13:30.305Z,3.08
2018-11-23T06:15:58.361Z,3.09
2018-11-23T06:18:26.433Z,3.00
2018-11-23T06:20:54.478Z,3.09
2018-11-23T06:23:22.489Z,3.11
2018-11-23T06:25:55.334Z,3.09
2018-11-23T06:28:23.354Z,3.01
2018-11-23T06:30:51.359Z,3.02
2018-11-23T06:33:31.467Z,2.90
2018-11-23T06:36:01.680Z,2.93
2018-11-23T06:38:29.677Z,2.96
2018-11-23T06:40:57.923Z,2.90
2018-11-23T06:43:26.098Z,2.91
2018-11-23T06:45:54.085Z,3.00
2018-11-23T06:48:22.081Z,3.08
2018-11-23T06:50:50.137Z,3.00
2018-11-23T06:53:18.177Z,3.03
2018-11-23T06:55:46.205Z,3.00
2018-11-23T06:58:14.267Z,2.96
2018-11-23T07:00:42.273Z,2.86
2018-11-23T07:03:10.283Z,2.84
2018-11-23T07:05:38.347Z,2.78
2018-11-23T07:08:06.839Z,2.87
2018-11-23T07:10:34.881Z,2.95
2018-11-23T07:13:02.893Z,3.01
2018-11-23T07:15:30.906Z,3.04
2018-11-23T07:17:58.934Z,3.19
2018-11-23T07:20:26.990Z,3.07
2018-11-23T07:22:54.980Z,2.99
2018-11-23T07:25:22.991Z,3.04
2018-11-23T07:27:51.080Z,3.07
2018-11-23T07:30:21.785Z,2.98
2018-11-23T07:32:49.785Z,3.07
2018-11-23T07:35:17.778Z,2.95
2018-11-23T07:37:45.887Z,2.96
2018-11-23T07:40:27.173Z,2.90
2018-11-23T07:42:55.542Z,2.94
2018-11-23T07:45:23.779Z,3.07
2018-11-23T07:47:51.890Z,2.90
2018-11-23T07:50:19.957Z,2.82
2018-11-23T07:52:47.965Z,2.85
2018-11-23T07:55:15.966Z,2.97
2018-11-23T07:57:43.945Z,2.86
2018-11-23T08:00:13.794Z,2.86
2018-11-23T08:02:42.157Z,2.79
2018-11-23T08:05:11.973Z,2.88
2018-11-23T08:07:40.017Z,2.82
2018-11-23T08:10:11.214Z,2.79
2018-11-23T08:12:40.273Z,2.85
2018-11-23T08:15:16.849Z,2.91
2018-11-23T08:17:44.839Z,2.98
2018-11-23T08:20:14.431Z,3.10
2018-11-23T08:22:42.697Z,3.12
2018-11-23T08:25:11.801Z,3.28
2018-11-23T08:27:40.292Z,3.46
2018-11-23T08:30:13.166Z,3.49
2018-11-23T08:32:41.438Z,3.55
2018-11-23T08:35:09.795Z,3.46
2018-11-23T08:37:38.189Z,3.64
2018-11-23T08:40:10.252Z,3.45
2018-11-23T08:42:38.231Z,3.39
2018-11-23T08:45:08.741Z,3.44
2018-11-23T08:47:36.929Z,3.50
2018-11-23T08:50:07.137Z,3.44
2018-11-23T08:52:35.133Z,3.53
2018-11-23T08:55:03.142Z,3.54
2018-11-23T08:57:31.146Z,3.65
2018-11-23T08:59:59.133Z,3.67
2018-11-23T09:02:27.130Z,3.68
2018-11-23T09:04:55.129Z,3.72
2018-11-23T09:07:23.133Z,3.61
2018-11-23T09:09:51.133Z,3.53
2018-11-23T09:12:19.126Z,3.55
2018-11-23T09:14:47.185Z,3.61
2018-11-23T09:17:15.178Z,3.54
2018-11-23T09:19:43.194Z,3.53
2018-11-23T09:22:11.190Z,3.55
2018-11-23T09:24:39.182Z,3.80
2018-11-23T09:27:06.958Z,3.63
2018-11-23T09:29:34.973Z,3.69
2018-11-23T09:32:02.970Z,3.72
2018-11-23T09:34:30.954Z,3.64
2018-11-23T09:36:58.962Z,3.65
2018-11-23T09:39:26.969Z,3.64
2018-11-23T09:41:54.981Z,3.74
2018-11-23T09:44:23.019Z,3.81
2018-11-23T09:46:51.016Z,3.78
2018-11-23T09:49:19.018Z,3.67
2018-11-23T09:51:47.135Z,3.79
2018-11-23T09:54:15.138Z,3.89
2018-11-23T09:56:43.137Z,3.78
2018-11-23T09:59:11.281Z,3.66
2018-11-23T10:01:39.279Z,3.61
2018-11-23T10:04:07.316Z,3.75
2018-11-23T10:06:35.313Z,3.78
2018-11-23T10:09:03.397Z,3.74
2018-11-23T10:11:31.409Z,3.84
2018-11-23T10:13:59.501Z,3.88
2018-11-23T10:16:27.715Z,3.78
2018-11-23T10:18:55.718Z,3.85
2018-11-23T10:21:23.869Z,3.85
2018-11-23T10:23:51.913Z,3.83
2018-11-23T10:26:19.910Z,4.06
2018-11-23T10:28:47.958Z,4.07
2018-11-23T10:31:15.950Z,4.13
2018-11-23T10:33:43.965Z,4.21
2018-11-23T10:36:12.004Z,4.21
2018-11-23T10:38:39.984Z,4.11
2018-11-23T10:41:08.024Z,4.09
2018-11-23T10:43:36.017Z,4.08
2018-11-23T10:46:04.032Z,4.11
2018-11-23T10:48:32.022Z,4.26
2018-11-23T10:51:00.045Z,4.38
2018-11-23T10:53:28.062Z,4.46
2018-11-23T10:55:56.091Z,4.48
2018-11-23T10:58:24.096Z,4.45
2018-11-23T11:00:57.658Z,4.42
2018-11-23T11:03:33.257Z,4.30
2018-11-23T11:06:09.258Z,4.55
2018-11-23T11:08:37.541Z,4.50
2018-11-23T11:11:05.729Z,4.54
2018-11-23T11:13:33.739Z,4.66
2018-11-23T11:16:01.879Z,4.74
2018-11-23T11:18:29.888Z,4.64
2018-11-23T11:20:58.897Z,4.74
2018-11-23T11:23:27.258Z,4.69
2018-11-23T11:25:55.366Z,4.60
2018-11-23T11:28:23.991Z,4.44
2018-11-23T11:30:52.035Z,4.50
2018-11-23T11:33:20.165Z,4.55
2018-11-23T11:35:48.218Z,4.62
2018-11-23T11:38:16.253Z,4.77
2018-11-23T11:40:44.277Z,4.70
2018-11-23T11:43:12.562Z,4.73
2018-11-23T11:45:40.569Z,4.62
2018-11-23T11:48:08.635Z,4.71
2018-11-23T11:50:36.850Z,4.63
2018-11-23T11:53:05.116Z,4.47
2018-11-23T11:55:33.112Z,4.51
2018-11-23T11:58:01.099Z,4.56
2018-11-23T12:00:29.169Z,4.63
2018-11-23T12:02:57.173Z,4.56
2018-11-23T12:05:25.170Z,4.49
2018-11-23T12:07:53.169Z,4.49
2018-11-23T12:10:22.697Z,4.48
2018-11-23T12:12:50.726Z,4.40
2018-11-23T12:15:18.749Z,4.40
2018-11-23T12:17:46.750Z,4.49
2018-11-23T12:20:17.325Z,4.31
2018-11-23T12:22:45.798Z,4.29
2018-11-23T12:25:13.805Z,4.41
2018-11-23T12:27:42.102Z,4.48
2018-11-23T12:30:14.946Z,4.55
2018-11-23T12:32:43.665Z,4.43
2018-11-23T12:35:12.654Z,4.39
2018-11-23T12:37:40.797Z,4.39
2018-11-23T12:40:10.547Z,4.41
2018-11-23T12:42:38.574Z,4.52
2018-11-23T12:45:08.094Z,4.55
2018-11-23T12:47:36.087Z,4.66
2018-11-23T12:50:04.822Z,4.65
2018-11-23T12:52:32.826Z,4.79
2018-11-23T12:55:00.846Z,4.70
2018-11-23T12:57:28.846Z,4.64
2018-11-23T12:59:56.866Z,4.58
2018-11-23T13:02:24.866Z,4.40
2018-11-23T13:04:52.889Z,4.29
2018-11-23T13:07:20.902Z,4.39
2018-11-23T13:09:48.915Z,4.39
2018-11-23T13:12:16.994Z,4.61
2018-11-23T13:14:44.986Z,4.77
2018-11-23T13:17:13.021Z,4.74
2018-11-23T13:19:41.034Z,4.94
2018-11-23T13:22:09.046Z,5.03
2018-11-23T13:24:37.025Z,5.15
2018-11-23T13:27:05.982Z,5.07
2018-11-23T13:29:33.974Z,4.88
2018-11-23T13:32:01.970Z,4.85
2018-11-23T13:34:29.958Z,5.18
2018-11-23T13:36:57.957Z,5.18
2018-11-23T13:39:25.944Z,5.20
2018-11-23T13:41:53.945Z,5.19
2018-11-23T13:44:21.932Z,5.04
2018-11-23T13:46:49.921Z,5.05
2018-11-23T13:49:17.921Z,4.93
2018-11-23T13:51:45.902Z,5.04
2018-11-23T13:54:13.914Z,5.03
2018-11-23T13:56:41.926Z,5.02
2018-11-23T13:59:09.979Z,4.74
2018-11-23T14:01:37.918Z,4.76
2018-11-23T14:04:05.934Z,4.71
2018-11-23T14:06:33.936Z,4.72
2018-11-23T14:09:01.938Z,4.75
2018-11-23T14:11:29.957Z,4.87
2018-11-23T14:13:57.957Z,4.65
2018-11-23T14:16:25.962Z,4.74
2018-11-23T14:18:53.949Z,4.83
2018-11-23T14:21:21.977Z,4.78
2018-11-23T14:23:49.995Z,4.62
2018-11-23T14:26:18.016Z,4.54
2018-11-23T14:28:46.006Z,4.40
2018-11-23T14:31:14.011Z,4.34
2018-11-23T14:33:42.008Z,4.47
2018-11-23T14:36:10.019Z,4.55
2018-11-23T14:38:38.034Z,4.85
2018-11-23T14:41:06.058Z,4.85
2018-11-23T14:43:34.120Z,4.93
2018-11-23T14:46:02.111Z,5.14
2018-11-23T14:48:30.107Z,5.03
2018-11-23T14:50:58.105Z,4.74
2018-11-23T14:53:26.118Z,4.51
2018-11-23T14:55:54.313Z,4.41
2018-11-23T14:58:22.317Z,4.29
2018-11-23T15:00:50.321Z,4.29
2018-11-23T15:03:19.393Z,4.37
2018-11-23T15:05:46.342Z,4.45
2018-11-23T15:08:14.360Z,4.62
2018-11-23T15:10:42.358Z,4.79
2018-11-23T15:13:10.357Z,5.00
2018-11-23T15:15:39.829Z,5.09
2018-11-23T15:18:08.421Z,5.14
2018-11-23T15:20:37.997Z,5.03
2018-11-23T15:23:09.353Z,4.99
2018-11-23T15:25:37.402Z,4.94
2018-11-23T15:28:06.209Z,5.03
2018-11-23T15:30:35.429Z,5.08
2018-11-23T15:33:04.006Z,5.25
2018-11-23T15:35:33.388Z,5.29
2018-11-23T15:38:01.446Z,5.27
2018-11-23T15:40:30.289Z,5.21
2018-11-23T15:43:00.629Z,5.37
2018-11-23T15:45:29.683Z,5.46
2018-11-23T15:47:58.267Z,5.58
2018-11-23T15:50:27.875Z,5.69
2018-11-23T15:52:55.857Z,5.60
2018-11-23T15:55:26.857Z,5.72
2018-11-23T15:57:56.286Z,5.80
2018-11-23T16:00:26.535Z,5.53
2018-11-23T16:02:54.780Z,5.42
2018-11-23T16:05:23.039Z,5.48
2018-11-23T16:07:51.757Z,5.48
2018-11-23T16:10:23.424Z,5.21
2018-11-23T16:12:53.512Z,5.03
2018-11-23T16:15:22.211Z,4.89
2018-11-23T16:17:50.721Z,4.76
2018-11-23T16:20:20.293Z,4.66
2018-11-23T16:22:51.494Z,4.64
2018-11-23T16:25:19.599Z,4.62
2018-11-23T16:27:49.110Z,4.63
2018-11-23T16:30:21.385Z,4.60
2018-11-23T16:32:50.489Z,4.68
2018-11-23T16:35:20.002Z,4.85
2018-11-23T16:37:48.259Z,4.69
2018-11-23T16:40:18.677Z,4.89
2018-11-23T16:42:46.693Z,4.93
2018-11-23T16:45:18.098Z,4.96
2018-11-23T16:47:46.678Z,5.05
2018-11-23T16:50:14.861Z,5.06
2018-11-23T16:52:44.048Z,4.90
2018-11-23T16:55:13.058Z,4.76
2018-11-23T16:57:42.301Z,4.77
2018-11-23T17:00:20.158Z,4.60
2018-11-23T17:02:48.331Z,4.43
2018-11-23T17:05:17.741Z,4.49
2018-11-23T17:07:45.775Z,4.51
2018-11-23T17:10:15.081Z,4.34
2018-11-23T17:12:43.504Z,4.42
2018-11-23T17:15:15.218Z,4.34
2018-11-23T17:17:43.404Z,4.45
2018-11-23T17:20:13.523Z,4.42
2018-11-23T17:22:42.720Z,4.33
2018-11-23T17:25:12.134Z,4.25
2018-11-23T17:27:40.242Z,4.28
2018-11-23T17:30:10.292Z,4.45
2018-11-23T17:32:38.606Z,4.36
2018-11-23T17:35:07.257Z,4.43
2018-11-23T17:37:35.650Z,4.42
2018-11-23T17:40:03.903Z,4.51
2018-11-23T17:42:31.940Z,4.44
2018-11-23T17:45:00.410Z,4.44
2018-11-23T17:47:28.773Z,4.54
2018-11-23T17:49:57.014Z,4.63
2018-11-23T17:52:25.017Z,4.97
2018-11-23T17:54:53.048Z,4.91
2018-11-23T17:57:21.054Z,4.83
2018-11-23T17:59:50.234Z,4.86
2018-11-23T18:02:19.962Z,4.75
2018-11-23T18:04:48.416Z,4.80
2018-11-23T18:07:16.427Z,4.70
2018-11-23T18:09:44.662Z,4.84
2018-11-23T18:12:12.770Z,4.95
2018-11-23T18:14:40.760Z,4.89
2018-11-23T18:17:08.785Z,4.85
2018-11-23T18:19:36.786Z,4.93
2018-11-23T18:22:04.812Z,5.03
2018-11-23T18:24:32.810Z,4.82
2018-11-23T18:27:00.907Z,4.81
2018-11-23T18:29:29.018Z,4.91
2018-11-23T18:31:57.029Z,4.94
2018-11-23T18:34:25.085Z,4.90
2018-11-23T18:36:53.105Z,4.70
2018-11-23T18:39:21.098Z,4.75
2018-11-23T18:41:49.143Z,4.80
2018-11-23T18:44:17.210Z,4.72
2018-11-23T18:46:45.224Z,4.85
2018-11-23T18:49:13.246Z,4.60
2018-11-23T18:51:41.305Z,4.55
2018-11-23T18:54:10.378Z,4.57
2018-11-23T18:56:38.405Z,4.58
2018-11-23T18:59:06.471Z,4.57
2018-11-23T19:01:34.522Z,4.54
2018-11-23T19:04:02.546Z,4.42
2018-11-23T19:06:30.534Z,4.48
2018-11-23T19:08:58.563Z,4.44
2018-11-23T19:11:26.774Z,4.50
2018-11-23T19:13:54.772Z,4.52
2018-11-23T19:16:22.809Z,4.53
2018-11-23T19:18:50.895Z,4.68
2018-11-23T19:21:18.889Z,4.69
2018-11-23T19:23:46.945Z,4.45
2018-11-23T19:26:14.954Z,4.55
2018-11-23T19:28:42.978Z,4.61
2018-11-23T19:31:11.165Z,4.67
2018-11-23T19:33:39.208Z,4.51
2018-11-23T19:36:07.194Z,4.47
2018-11-23T19:38:36.226Z,4.42
2018-11-23T19:41:04.257Z,4.35
2018-11-23T19:43:32.278Z,4.36
2018-11-23T19:46:00.294Z,4.24
2018-11-23T19:48:28.317Z,4.11
2018-11-23T19:50:56.318Z,4.34
2018-11-23T19:53:24.362Z,4.56
2018-11-23T19:55:52.431Z,4.30
2018-11-23T19:58:20.474Z,4.37
2018-11-23T20:00:48.479Z,4.50
2018-11-23T20:03:16.543Z,4.40
2018-11-23T20:05:44.516Z,4.19
2018-11-23T20:08:12.595Z,4.16
2018-11-23T20:10:40.626Z,4.24
2018-11-23T20:13:08.639Z,4.06
2018-11-23T20:15:36.696Z,4.01
2018-11-23T20:18:04.842Z,3.90
2018-11-23T20:20:32.845Z,3.97
2018-11-23T20:23:02.926Z,3.80
2018-11-23T20:25:30.946Z,4.00
2018-11-23T20:27:58.939Z,4.22
2018-11-23T20:30:26.970Z,4.16
2018-11-23T20:32:54.994Z,4.18
2018-11-23T20:35:23.297Z,4.19
2018-11-23T20:37:51.313Z,4.16
2018-11-23T20:40:20.356Z,4.17
2018-11-23T20:42:48.371Z,4.08
2018-11-23T20:45:16.425Z,4.05
2018-11-23T20:47:44.453Z,4.05
2018-11-23T20:50:14.383Z,4.11
2018-11-23T20:52:42.394Z,4.14
2018-11-23T20:55:17.498Z,4.22
2018-11-23T20:57:45.498Z,4.24
2018-11-23T21:00:16.147Z,4.24
2018-11-23T21:02:44.732Z,4.34
2018-11-23T21:05:14.672Z,4.43
2018-11-23T21:07:42.713Z,4.47
2018-11-23T21:10:19.912Z,4.41
2018-11-23T21:12:40.729Z,4.45
2018-11-23T21:15:18.436Z,4.34
2018-11-23T21:17:46.526Z,4.18
2018-11-23T21:20:14.549Z,4.12
2018-11-23T21:22:42.613Z,4.07
2018-11-23T21:25:11.092Z,4.02
2018-11-23T21:27:39.159Z,3.88
2018-11-23T21:30:12.701Z,3.89
2018-11-23T21:32:40.749Z,4.03
2018-11-23T21:35:09.461Z,4.19
2018-11-23T21:37:37.473Z,4.29
2018-11-23T21:40:11.689Z,4.50
2018-11-23T21:42:39.694Z,4.54
2018-11-23T21:45:10.859Z,4.34
2018-11-23T21:47:38.873Z,4.23
2018-11-23T21:50:09.396Z,4.19
2018-11-23T21:52:37.412Z,4.19
2018-11-23T21:55:07.817Z,4.27
2018-11-23T21:57:35.853Z,4.42
2018-11-23T22:00:05.727Z,4.36
2018-11-23T22:02:33.806Z,4.48
2018-11-23T22:05:01.823Z,4.48
2018-11-23T22:07:29.838Z,4.35
2018-11-23T22:09:57.961Z,4.28
2018-11-23T22:12:26.117Z,4.26
2018-11-23T22:14:54.210Z,4.29
2018-11-23T22:17:22.234Z,4.46
2018-11-23T22:19:50.427Z,4.52
2018-11-23T22:22:18.436Z,4.43
2018-11-23T22:24:46.445Z,4.38
2018-11-23T22:27:14.490Z,4.55
2018-11-23T22:29:42.533Z,4.80
2018-11-23T22:32:10.563Z,4.53
2018-11-23T22:34:38.588Z,4.42
2018-11-23T22:37:06.626Z,4.55
2018-11-23T22:39:34.627Z,4.54
2018-11-23T22:42:02.702Z,4.33
2018-11-23T22:44:30.742Z,4.36
2018-11-23T22:46:58.777Z,4.38
2018-11-23T22:49:26.797Z,4.50
2018-11-23T22:51:54.814Z,4.32
2018-11-23T22:54:22.909Z,4.21
2018-11-23T22:56:50.926Z,4.08
2018-11-23T22:59:18.954Z,4.16
2018-11-23T23:01:47.238Z,4.10
2018-11-23T23:04:15.261Z,4.00
2018-11-23T23:06:43.297Z,4.01
2018-11-23T23:09:11.407Z,4.03
2018-11-23T23:11:39.663Z,4.03
2018-11-23T23:14:07.657Z,3.84
2018-11-23T23:16:35.705Z,3.71
2018-11-23T23:19:03.691Z,3.88
2018-11-23T23:21:31.743Z,3.90
2018-11-23T23:23:59.799Z,4.05
2018-11-23T23:26:27.808Z,4.16
2018-11-23T23:28:55.934Z,4.21
2018-11-23T23:31:23.982Z,4.21
2018-11-23T23:33:51.981Z,3.86
2018-11-23T23:36:19.990Z,3.86
2018-11-23T23:38:48.009Z,3.73
2018-11-23T23:41:16.045Z,3.66
2018-11-23T23:43:44.041Z,3.67
2018-11-23T23:46:12.041Z,3.54
2018-11-23T23:48:40.062Z,3.68
2018-11-23T23:51:08.111Z,3.63
2018-11-23T23:53:36.162Z,3.59
2018-11-23T23:56:04.533Z,3.58
2018-11-23T23:58:32.545Z,3.60
